Content
SEND FEEDBACK

Daily
Averages
Monthly
Summary
France

NIMES, FRANCE


Home > Europe > France
Elevation: 60 meters     Latitude: 43 51N     Longitude: 004 24E

WEATHER
 
SELECT A DAY
Number of Records: 200,982;   Date Range: 7/1/96 - 12/18/14
 
SHARE

PRINT THIS DATA

[ ← Previous Day ]
WEATHER ALMANAC - 23 JANUARY, 2013
[ Next Day → ]
[ °F ]   °C
Weather ElementAverageHighLow
Temperature5.2 °C7 °C (12:30 am)3 °C (10:30 pm)
Dewpoint2.9 °C4 °C (12:30 am)1 °C (9:00 pm)
Humidity85.6 %100 % (9:30 am)76 % (3:00 pm)
Barometer1001.7 hPa1004.1 hPa (6:30 pm)999 hPa (1:30 am)
Wind Speed15.4 km/h27.8 km/h (11:00 am)
Weather ElementAverage
Visibility9 km
Wind DirectionWNW (281.9 °)

Weather ElementTotal
Precipitation---
Heating Degree Days13.3 (Base 18.3)
Averaged from 47 records on 23 January, 2013
WEATHER CONDITIONS BREAKOUT
WIND DIRECTION BREAKOUT
WEATHER BY HOUR - 23 JANUARY, 2013
[ °F ]   °C
Local TimeTemperatureDewpointHumidityBarometerVisibilityWind DirectionWind SpeedGust SpeedPrecipitationEventsConditions
12:30 AM7 °C4 °C81 %1000 hPa10 kmENE (70°)13 km/hOvercast
1:00 AM7 °C4 °C81 %1000 hPa10 kmENE (70°)13 km/hOvercast
1:30 AM6 °C3 °C81 %999 hPa10 kmENE (60°)16.7 km/hMostly Cloudy
2:00 AM6 °C3 °C81 %1000 hPa10 kmEast (80°)16.7 km/hMostly Cloudy
2:30 AM6 °C3 °C81 %1000 hPa10 kmNE (50°)13 km/hMostly Cloudy
3:00 AM6 °C4 °C87 %1000 hPa10 kmNE (40°)11.1 km/hMostly Cloudy
3:30 AM6 °C4 °C87 %1000 hPa9 kmNNE (20°)13 km/hRainLight Rain
4:00 AM5 °C4 °C93 %1000 hPa1.8 kmNNE (20°)11.1 km/hRainLight Rain
4:30 AM5 °C4 °C93 %1000 hPa1.3 kmNorth (10°)7.4 km/hRainLight Rain
5:00 AM5 °C4 °C93 %1000 hPaNW (320°)7.4 km/hRainRain
5:30 AM5 °C4 °C93 %1000 hPa8 kmNorth (350°)18.5 km/hRainRain
6:00 AM4 °C3 °C93 %1000 hPa8 kmNNW (340°)20.4 km/hRainRain
6:30 AM4 °C3 °C93 %1000 hPa8 kmNorth (350°)20.4 km/hRainRain
7:00 AM4 °C3 °C93 %1000 hPa5 kmNNW (340°)18.5 km/hRainLight Rain Showers
7:30 AM4 °C3 °C93 %1000 hPa6.9 kmNNW (340°)22.2 km/hRainRain
8:00 AM4 °C3 °C93 %1000 hPa6 kmNNW (340°)18.5 km/hRainRain
8:30 AM4 °C3 °C93 %1000 hPa9 kmNNW (340°)20.4 km/hRainRain
9:00 AM4 °C3 °C93 %1000 hPa9 kmNNW (340°)18.5 km/hRainRain
9:30 AM4 °C4 °C100 %1001 hPa5 kmNorth (350°)22.2 km/hRainRain
10:00 AM4 °C4 °C100 %1001 hPa10 kmNorth (350°)20.4 km/hRainLight Rain Showers
10:30 AM4 °C4 °C100 %1001 hPa10 kmNorth (350°)25.9 km/hRainLight Rain
11:00 AM5 °C4 °C93 %1001 hPa10 kmNorth (350°)27.8 km/h
11:30 AM5 °C4 °C93 %1001 hPa10 kmNNW (340°)24.1 km/h
12:00 PM6 °C4 °C87 %1001 hPa10 kmNNW (340°)25.9 km/h
12:30 PM6 °C3 °C81 %1001 hPa10 kmNNW (340°)24.1 km/h
1:00 PM6 °C3 °C81 %1002 hPa10 kmNorth (350°)22.2 km/h
1:30 PM6 °C3 °C81 %1002 hPa10 kmNNW (340°)14.8 km/hOvercast
2:00 PM6 °C3 °C81 %1002 hPa10 kmNNW (340°)20.4 km/h
2:30 PM6 °C3 °C81 %1002 hPa10 kmNNW (330°)16.7 km/h
3:00 PM7 °C3 °C76 %1002 hPa10 kmNNW (340°)18.5 km/h
3:30 PM7 °C3 °C76 %1002 hPa10 kmNNW (330°)22.2 km/h
4:00 PM7 °C3 °C76 %1003 hPa10 kmNNW (340°)18.5 km/h
4:30 PM7 °C3 °C76 %1003 hPa10 kmNNW (340°)14.8 km/h
5:00 PM6 °C2 °C76 %1003 hPa10 kmNNW (340°)11.1 km/h
5:30 PM6 °C2 °C76 %1003 hPa10 kmNNW (330°)11.1 km/h
6:00 PM6 °C2 °C76 %1003 hPa10 kmNW (320°)5.6 km/h
6:30 PM5 °C2 °C81 %1004.1 hPa10 kmNorth (350°)5.6 km/h
7:00 PM5 °C2 °C81 %1004.1 hPa10 kmNorth (350°)9.3 km/h
7:30 PM5 °C2 °C81 %1004.1 hPa10 kmNorth (350°)11.1 km/h
8:00 PM5 °C2 °C81 %1004.1 hPa10 kmNNW (330°)9.3 km/h
8:30 PM5 °C2 °C81 %1004.1 hPa10 kmNW (320°)9.3 km/h
9:00 PM4 °C1 °C81 %1004.1 hPa10 kmWNW (300°)11.1 km/h
9:30 PM4 °C1 °C81 %1004.1 hPa10 kmNW (320°)7.4 km/h
10:00 PM4 °C1 °C81 %1004.1 hPa10 kmNNW (330°)11.1 km/h
10:30 PM3 °C1 °C87 %1004.1 hPa10 kmNNW (340°)7.4 km/h
11:00 PM3 °C1 °C87 %1004.1 hPa10 kmNorth (350°)9.3 km/h
11:30 PM3 °C1 °C87 %1004.1 hPa10 kmNW (310°)11.1 km/h
Hourly data recorded from LFTW, located 0 kilometers away from Nimes, France







STORIES FROM OUR PARTNERS